createdAt,value
2023-04-29T00:01:34.912Z,18.15
2023-04-29T00:04:04.910Z,20.15
2023-04-29T00:06:34.445Z,20.27
2023-04-29T00:09:04.800Z,19.77
2023-04-29T00:11:33.542Z,20.05
2023-04-29T00:14:02.753Z,21.02
2023-04-29T00:16:33.081Z,20.23
2023-04-29T00:21:48.426Z,23.35
2023-04-29T00:24:16.923Z,17.88
2023-04-29T00:26:48.595Z,20.55
2023-04-29T00:29:19.461Z,20.73
2023-04-29T00:31:51.654Z,17.80
2023-04-29T00:34:21.862Z,21.05
2023-04-29T00:36:50.896Z,20.02
2023-04-29T00:39:23.405Z,25.08
2023-04-29T00:42:05.299Z,20.85
2023-04-29T00:44:36.347Z,21.98
2023-04-29T00:47:08.945Z,19.40
2023-04-29T00:52:15.351Z,21.58
2023-04-29T00:57:15.381Z,19.17
2023-04-29T00:59:49.163Z,22.17
2023-04-29T01:02:20.994Z,20.45
2023-04-29T01:04:57.646Z,21.17
2023-04-29T01:07:59.375Z,20.23
2023-04-29T01:10:36.072Z,23.42
2023-04-29T01:13:12.076Z,25.58
2023-04-29T01:16:32.298Z,17.88
2023-04-29T01:19:18.134Z,22.10
2023-04-29T01:21:49.397Z,18.33
2023-04-29T01:24:18.586Z,23.23
2023-04-29T01:27:02.939Z,17.73
2023-04-29T01:30:05.999Z,20.33
2023-04-29T01:32:58.344Z,20.45
2023-04-29T01:35:53.127Z,23.33
2023-04-29T01:38:43.696Z,22.70
2023-04-29T01:41:18.486Z,20.50
2023-04-29T01:43:53.053Z,19.98
2023-04-29T01:46:28.159Z,17.65
2023-04-29T01:48:59.331Z,20.05
2023-04-29T01:51:28.816Z,22.42
2023-04-29T01:53:59.581Z,20.65
2023-04-29T01:56:28.734Z,22.55
2023-04-29T01:59:26.999Z,23.25
2023-04-29T02:01:59.037Z,18.95
2023-04-29T02:04:29.091Z,22.85
2023-04-29T02:07:01.853Z,19.50
2023-04-29T02:09:32.460Z,21.63
2023-04-29T02:12:08.960Z,22.65
2023-04-29T02:14:37.917Z,21.60
2023-04-29T02:17:08.045Z,21.77
2023-04-29T02:19:40.500Z,23.80
2023-04-29T02:22:09.587Z,20.77
2023-04-29T02:24:39.158Z,20.60
2023-04-29T02:27:10.362Z,22.77
2023-04-29T02:29:38.717Z,20.92
2023-04-29T02:32:07.755Z,21.05
2023-04-29T02:34:36.169Z,29.13
2023-04-29T02:37:05.012Z,23.13
2023-04-29T02:39:33.243Z,24.42
2023-04-29T02:42:02.422Z,24.48
2023-04-29T02:44:31.633Z,22.10
2023-04-29T02:47:01.376Z,21.63
2023-04-29T02:49:30.485Z,22.42
2023-04-29T02:51:59.289Z,21.13
2023-04-29T02:54:27.607Z,24.98
2023-04-29T02:56:56.310Z,22.73
2023-04-29T02:59:24.632Z,20.85
2023-04-29T03:01:57.015Z,21.48
2023-04-29T03:06:58.400Z,25.38
2023-04-29T03:09:28.926Z,22.38
2023-04-29T03:11:57.764Z,25.50
2023-04-29T03:14:26.162Z,22.40
2023-04-29T03:16:56.678Z,26.77
2023-04-29T03:19:43.836Z,21.60
2023-04-29T03:22:12.685Z,23.67
2023-04-29T03:24:46.151Z,20.77
2023-04-29T03:27:15.165Z,22.33
2023-04-29T03:29:43.485Z,24.48
2023-04-29T03:32:13.252Z,26.58
2023-04-29T03:34:41.619Z,23.90
2023-04-29T03:37:30.487Z,23.35
2023-04-29T03:40:19.206Z,20.15
2023-04-29T03:42:48.097Z,21.88
2023-04-29T03:45:16.847Z,24.02
2023-04-29T03:47:46.473Z,22.23
2023-04-29T03:50:14.775Z,23.73
2023-04-29T03:52:43.871Z,22.65
2023-04-29T03:55:16.925Z,25.17
2023-04-29T03:57:46.823Z,24.42
2023-04-29T04:00:17.699Z,22.92
2023-04-29T04:02:48.882Z,22.83
2023-04-29T04:05:19.719Z,23.73
2023-04-29T04:07:55.358Z,24.98
2023-04-29T04:10:35.568Z,26.58
2023-04-29T04:13:09.007Z,25.05
2023-04-29T04:15:38.863Z,20.67
2023-04-29T04:18:08.345Z,21.40
2023-04-29T04:20:37.528Z,25.48
2023-04-29T04:23:07.149Z,24.17
2023-04-29T04:25:35.616Z,29.13
2023-04-29T04:28:26.988Z,24.97
2023-04-29T04:31:02.617Z,26.50
2023-04-29T04:33:31.537Z,23.05
2023-04-29T04:36:00.399Z,40.20
2023-04-29T04:38:29.144Z,35.45
2023-04-29T04:40:57.978Z,21.55
2023-04-29T04:43:34.836Z,25.55
2023-04-29T04:46:14.537Z,34.17
2023-04-29T04:48:53.602Z,22.52
2023-04-29T04:51:22.035Z,22.25
2023-04-29T04:53:50.761Z,27.90
2023-04-29T04:56:24.457Z,22.38
2023-04-29T04:58:53.356Z,22.92
2023-04-29T05:01:22.697Z,24.10
2023-04-29T05:03:51.487Z,24.95
2023-04-29T05:06:20.107Z,31.67
2023-04-29T05:08:49.862Z,31.75
2023-04-29T05:11:20.000Z,23.17
2023-04-29T05:14:01.967Z,25.45
2023-04-29T05:16:30.975Z,24.90
2023-04-29T05:19:00.159Z,27.88
2023-04-29T05:21:32.812Z,26.88
2023-04-29T05:24:02.726Z,25.27
2023-04-29T05:26:31.228Z,23.35
2023-04-29T05:29:02.553Z,25.67
2023-04-29T05:31:37.665Z,28.10
2023-04-29T05:34:06.497Z,22.33
2023-04-29T05:36:34.857Z,23.95
2023-04-29T05:39:04.194Z,24.10
2023-04-29T05:41:32.558Z,28.83
2023-04-29T05:44:21.853Z,25.98
2023-04-29T05:46:51.803Z,28.27
2023-04-29T05:49:21.084Z,26.92
2023-04-29T05:51:49.918Z,30.08
2023-04-29T05:54:18.646Z,23.02
2023-04-29T05:56:48.000Z,26.50
2023-04-29T05:59:16.520Z,23.30
2023-04-29T06:01:51.601Z,23.08
2023-04-29T06:04:21.008Z,25.77
2023-04-29T06:07:16.108Z,24.73
2023-04-29T06:10:07.060Z,28.60
2023-04-29T06:12:35.869Z,34.00
2023-04-29T06:15:05.185Z,21.90
2023-04-29T06:17:33.724Z,28.25
2023-04-29T06:20:02.322Z,25.23
2023-04-29T06:22:30.928Z,25.10
2023-04-29T06:25:01.212Z,22.23
2023-04-29T06:27:42.658Z,27.05
2023-04-29T06:30:12.324Z,22.33
2023-04-29T06:32:41.610Z,47.25
2023-04-29T06:35:10.783Z,24.42
2023-04-29T06:37:57.538Z,22.25
2023-04-29T06:40:49.345Z,25.00
2023-04-29T06:43:52.318Z,18.98
2023-04-29T06:46:40.044Z,20.88
2023-04-29T06:49:11.938Z,17.73
2023-04-29T06:51:50.200Z,31.77
2023-04-29T06:54:18.999Z,17.73
2023-04-29T06:56:48.355Z,20.83
2023-04-29T06:59:19.304Z,51.70
2023-04-29T07:01:49.759Z,24.95
2023-04-29T07:04:21.176Z,19.83
2023-04-29T07:06:50.208Z,27.33
2023-04-29T07:09:18.815Z,20.00
2023-04-29T07:11:47.389Z,20.15
2023-04-29T07:14:16.237Z,23.92
2023-04-29T07:16:45.161Z,23.98
2023-04-29T07:19:13.372Z,21.45
2023-04-29T07:21:42.274Z,27.58
2023-04-29T07:24:10.689Z,16.70
2023-04-29T07:26:39.592Z,20.38
2023-04-29T07:36:02.709Z,21.95
2023-04-29T07:38:35.112Z,20.35
2023-04-29T07:44:22.798Z,20.17
2023-04-29T07:46:56.148Z,59.78
2023-04-29T07:49:26.499Z,33.35
2023-04-29T07:51:54.907Z,20.35
2023-04-29T07:54:23.825Z,16.98
2023-04-29T07:56:52.435Z,21.73
2023-04-29T07:59:22.101Z,22.30
2023-04-29T08:01:52.298Z,20.20
2023-04-29T08:04:25.150Z,16.85
2023-04-29T08:07:09.908Z,16.60
2023-04-29T08:09:38.819Z,18.40
2023-04-29T08:12:08.358Z,21.50
2023-04-29T08:14:37.574Z,20.08
2023-04-29T08:17:09.217Z,18.08
2023-04-29T08:19:37.738Z,18.08
2023-04-29T08:22:06.079Z,19.90
2023-04-29T08:24:35.390Z,18.00
2023-04-29T08:27:04.628Z,24.15
2023-04-29T08:29:33.366Z,31.40
2023-04-29T08:32:01.825Z,22.02
2023-04-29T08:34:32.182Z,21.70
2023-04-29T08:37:00.565Z,18.58
2023-04-29T08:40:37.709Z,16.80
2023-04-29T08:43:06.950Z,16.13
2023-04-29T08:45:39.937Z,15.48
2023-04-29T08:48:13.937Z,19.42
2023-04-29T08:50:48.053Z,19.23
2023-04-29T08:53:16.828Z,37.55
2023-04-29T08:55:54.604Z,43.58
2023-04-29T08:58:34.820Z,23.17
2023-04-29T09:01:03.564Z,21.13
2023-04-29T09:03:43.159Z,23.17
2023-04-29T09:06:14.663Z,33.42
2023-04-29T09:08:43.424Z,23.20
2023-04-29T09:11:13.256Z,22.65
2023-04-29T09:13:42.268Z,22.73
2023-04-29T09:16:14.020Z,24.20
2023-04-29T09:18:44.257Z,23.33
2023-04-29T09:21:27.317Z,25.35
2023-04-29T09:23:58.206Z,28.25
2023-04-29T09:26:27.548Z,28.45
2023-04-29T09:29:11.867Z,25.92
2023-04-29T09:31:41.266Z,25.08
2023-04-29T09:34:12.060Z,26.83
2023-04-29T09:36:49.443Z,20.92
2023-04-29T09:39:20.736Z,22.92
2023-04-29T09:41:55.508Z,24.25
2023-04-29T09:44:29.568Z,20.10
2023-04-29T09:47:03.195Z,27.42
2023-04-29T09:49:44.208Z,23.88
2023-04-29T09:52:21.001Z,25.40
2023-04-29T09:54:58.846Z,28.65
2023-04-29T09:57:44.839Z,29.10
2023-04-29T10:00:17.888Z,31.65
2023-04-29T10:02:48.531Z,30.42
2023-04-29T10:05:17.998Z,28.55
2023-04-29T10:07:50.354Z,22.73
2023-04-29T10:10:21.916Z,25.75
2023-04-29T10:12:53.804Z,22.75
2023-04-29T10:15:44.101Z,26.27
2023-04-29T10:18:22.263Z,32.92
2023-04-29T10:20:51.302Z,22.52
2023-04-29T10:23:22.608Z,26.08
2023-04-29T10:25:56.289Z,25.60
2023-04-29T10:28:25.925Z,21.88
2023-04-29T10:30:54.822Z,20.92
2023-04-29T10:33:26.730Z,22.33
2023-04-29T10:35:56.690Z,23.30
2023-04-29T10:38:35.762Z,20.63
2023-04-29T10:41:14.720Z,22.05
2023-04-29T10:43:43.151Z,23.75
2023-04-29T10:46:17.770Z,19.05
2023-04-29T10:48:47.378Z,18.83
2023-04-29T10:51:34.207Z,20.10
2023-04-29T10:54:08.637Z,18.50
2023-04-29T10:56:54.443Z,23.08
2023-04-29T10:59:29.288Z,24.45
2023-04-29T11:01:59.696Z,18.95
2023-04-29T11:04:28.337Z,19.98
2023-04-29T11:06:59.460Z,19.17
2023-04-29T11:09:30.673Z,21.58
2023-04-29T11:12:05.594Z,18.02
2023-04-29T11:14:51.175Z,21.80
2023-04-29T11:17:24.923Z,23.45
2023-04-29T11:19:56.379Z,25.63
2023-04-29T11:22:33.099Z,20.00
2023-04-29T11:25:05.596Z,19.40
2023-04-29T11:27:36.120Z,19.30
2023-04-29T11:30:07.050Z,22.33
2023-04-29T11:32:46.004Z,20.73
2023-04-29T11:35:16.459Z,18.35
2023-04-29T11:37:47.135Z,21.33
2023-04-29T11:40:17.130Z,21.40
2023-04-29T11:42:47.508Z,17.50
2023-04-29T11:45:19.873Z,19.70
2023-04-29T11:47:49.085Z,18.85
2023-04-29T11:50:20.501Z,18.38
2023-04-29T11:52:50.127Z,21.67
2023-04-29T11:55:19.910Z,21.90
2023-04-29T11:57:51.481Z,20.75
2023-04-29T12:00:20.444Z,18.98
2023-04-29T12:02:49.224Z,25.95
2023-04-29T12:05:19.885Z,22.42
2023-04-29T12:07:50.416Z,20.52
2023-04-29T12:10:19.402Z,21.25
2023-04-29T12:12:48.547Z,21.23
2023-04-29T12:15:17.454Z,18.10
2023-04-29T12:17:46.704Z,17.80
2023-04-29T12:20:15.938Z,20.00
2023-04-29T12:22:44.417Z,21.08
2023-04-29T12:25:13.694Z,21.42
2023-04-29T12:27:43.266Z,21.23
2023-04-29T12:30:12.776Z,21.17
2023-04-29T12:32:42.198Z,22.02
2023-04-29T12:35:18.323Z,25.27
2023-04-29T12:37:51.040Z,18.98
2023-04-29T12:40:21.243Z,21.38
2023-04-29T12:42:49.719Z,22.45
2023-04-29T12:45:32.857Z,19.40
2023-04-29T12:48:03.320Z,25.23
2023-04-29T12:50:36.549Z,20.95
2023-04-29T12:53:07.629Z,18.67
2023-04-29T12:55:38.301Z,14.90
2023-04-29T12:58:07.584Z,12.63
2023-04-29T13:00:38.046Z,15.63
2023-04-29T13:03:07.445Z,13.77
2023-04-29T13:05:36.389Z,13.82
2023-04-29T13:08:08.484Z,11.05
2023-04-29T13:10:37.201Z,11.70
2023-04-29T13:13:05.709Z,16.42
2023-04-29T13:15:34.634Z,11.45
2023-04-29T13:18:03.109Z,13.32
2023-04-29T13:20:33.393Z,16.60
2023-04-29T13:23:01.615Z,12.90
2023-04-29T13:25:30.214Z,13.70
2023-04-29T13:27:59.009Z,12.00
2023-04-29T13:30:27.565Z,20.80
2023-04-29T13:32:59.910Z,15.80
2023-04-29T13:35:38.453Z,10.75
2023-04-29T13:40:58.010Z,11.93
2023-04-29T13:43:36.818Z,12.30
2023-04-29T13:46:08.365Z,18.67
2023-04-29T13:49:14.236Z,14.93
2023-04-29T13:52:09.848Z,13.82
2023-04-29T14:04:22.142Z,10.85
2023-04-29T14:06:50.935Z,12.00
2023-04-29T14:09:20.183Z,11.60
2023-04-29T14:11:50.158Z,11.57
2023-04-29T14:14:18.532Z,12.65
2023-04-29T14:16:47.756Z,11.68
2023-04-29T14:19:16.103Z,23.30
2023-04-29T14:21:45.035Z,12.02
2023-04-29T14:24:13.454Z,13.18
2023-04-29T14:26:42.152Z,11.25
2023-04-29T14:29:10.396Z,19.92
2023-04-29T14:31:38.931Z,15.95
2023-04-29T14:34:07.369Z,10.73
2023-04-29T14:36:36.490Z,12.27
2023-04-29T14:39:05.514Z,17.45
2023-04-29T14:41:34.187Z,18.35
2023-04-29T14:44:02.603Z,24.40
2023-04-29T14:46:34.300Z,17.23
2023-04-29T14:49:03.678Z,10.65
2023-04-29T14:51:39.842Z,13.07
2023-04-29T14:54:12.746Z,16.52
2023-04-29T14:56:49.068Z,11.50
2023-04-29T14:59:17.815Z,25.63
2023-04-29T15:01:46.821Z,15.00
2023-04-29T15:04:25.872Z,15.80
2023-04-29T15:07:16.164Z,12.65
2023-04-29T15:09:47.809Z,11.90
2023-04-29T15:12:21.332Z,12.32
2023-04-29T15:14:50.812Z,11.57
2023-04-29T15:17:21.025Z,18.60
2023-04-29T15:19:52.559Z,14.05
2023-04-29T15:22:21.317Z,15.48
2023-04-29T15:24:54.095Z,11.52
2023-04-29T15:27:22.972Z,13.20
2023-04-29T15:29:54.815Z,13.60
2023-04-29T15:32:31.763Z,14.50
2023-04-29T15:35:04.669Z,13.15
2023-04-29T15:37:41.151Z,14.23
2023-04-29T15:40:22.618Z,12.85
2023-04-29T15:42:56.068Z,15.05
2023-04-29T15:45:25.123Z,17.00
2023-04-29T15:48:04.123Z,16.33
2023-04-29T15:50:37.850Z,15.18
2023-04-29T15:53:17.821Z,13.68
2023-04-29T15:55:46.233Z,15.52
2023-04-29T15:58:15.236Z,13.60
2023-04-29T16:00:52.910Z,14.85
2023-04-29T16:03:23.410Z,13.95
2023-04-29T16:06:00.547Z,16.10
2023-04-29T16:08:41.535Z,14.00
2023-04-29T16:11:09.997Z,16.75
2023-04-29T16:13:39.263Z,16.35
2023-04-29T16:16:16.272Z,18.55
2023-04-29T16:18:48.205Z,16.50
2023-04-29T16:21:19.288Z,16.35
2023-04-29T16:23:49.596Z,16.90
2023-04-29T16:26:22.129Z,16.48
2023-04-29T16:28:56.466Z,17.95
2023-04-29T16:31:28.802Z,15.50
2023-04-29T16:34:04.482Z,16.90
2023-04-29T16:36:36.301Z,20.42
2023-04-29T16:39:10.646Z,31.08
2023-04-29T16:41:39.154Z,21.58
2023-04-29T16:44:08.107Z,20.33
2023-04-29T16:46:36.543Z,20.85
2023-04-29T16:49:07.115Z,21.83
2023-04-29T16:51:36.919Z,24.45
2023-04-29T16:54:05.696Z,27.10
2023-04-29T16:56:33.922Z,19.20
2023-04-29T16:59:03.821Z,18.92
2023-04-29T17:01:32.761Z,23.10
2023-04-29T17:04:01.729Z,23.42
2023-04-29T17:06:31.380Z,29.75
2023-04-29T17:09:00.266Z,22.52
2023-04-29T17:11:28.901Z,24.00
2023-04-29T17:13:59.056Z,24.58
2023-04-29T17:16:27.564Z,27.38
2023-04-29T17:18:59.008Z,28.45
2023-04-29T17:21:30.856Z,45.03
2023-04-29T17:23:59.733Z,46.65
2023-04-29T17:26:28.265Z,49.72
2023-04-29T17:28:57.282Z,41.92
2023-04-29T17:31:45.219Z,161.43
2023-04-29T17:34:19.011Z,84.60
2023-04-29T17:36:47.782Z,51.22
2023-04-29T17:39:18.929Z,251.27
2023-04-29T17:41:47.362Z,180.88
2023-04-29T17:44:16.369Z,37.83
2023-04-29T17:46:45.994Z,20.63
2023-04-29T17:49:16.096Z,19.02
2023-04-29T17:51:46.164Z,24.63
2023-04-29T17:54:18.364Z,25.13
2023-04-29T17:56:47.020Z,26.25
2023-04-29T17:59:16.888Z,25.17
2023-04-29T18:01:45.541Z,27.08
2023-04-29T18:04:15.104Z,28.85
2023-04-29T18:06:49.487Z,27.77
2023-04-29T18:09:18.582Z,29.05
2023-04-29T18:11:50.861Z,32.40
2023-04-29T18:14:19.835Z,31.45
2023-04-29T18:16:48.231Z,30.73
2023-04-29T18:19:17.581Z,33.42
2023-04-29T18:21:45.899Z,34.28
2023-04-29T18:24:14.525Z,38.22
2023-04-29T18:26:43.279Z,34.40
2023-04-29T18:29:14.153Z,34.45
2023-04-29T18:31:43.418Z,36.53
2023-04-29T18:34:13.679Z,34.33
2023-04-29T18:36:42.235Z,35.75
2023-04-29T18:39:11.262Z,39.03
2023-04-29T18:41:40.984Z,42.08
2023-04-29T18:44:09.943Z,40.90
2023-04-29T18:46:38.550Z,39.15
2023-04-29T18:49:11.512Z,37.35
2023-04-29T18:51:43.751Z,35.72
2023-04-29T18:54:18.262Z,34.20
2023-04-29T18:56:49.355Z,38.42
2023-04-29T18:59:21.372Z,38.60
2023-04-29T19:01:56.237Z,39.15
2023-04-29T19:04:25.341Z,40.25
2023-04-29T19:06:54.604Z,39.47
2023-04-29T19:09:23.487Z,39.13
2023-04-29T19:11:52.261Z,35.85
2023-04-29T19:14:21.226Z,35.15
2023-04-29T19:16:55.078Z,34.50
2023-04-29T19:19:23.970Z,36.22
2023-04-29T19:21:54.131Z,35.78
2023-04-29T19:24:23.406Z,36.63
2023-04-29T19:26:52.233Z,36.78
2023-04-29T19:29:25.658Z,34.95
2023-04-29T19:31:56.622Z,35.78
2023-04-29T19:34:26.086Z,37.65
2023-04-29T19:36:54.539Z,33.92
2023-04-29T19:39:23.933Z,35.53
2023-04-29T19:41:53.979Z,32.60
2023-04-29T19:44:23.247Z,30.60
2023-04-29T19:46:54.771Z,31.27
2023-04-29T19:49:42.144Z,30.70
2023-04-29T19:52:13.601Z,31.58
2023-04-29T19:54:44.577Z,31.20
2023-04-29T19:57:14.475Z,31.60
2023-04-29T19:59:43.248Z,34.88
2023-04-29T20:02:11.749Z,34.88
2023-04-29T20:04:42.247Z,31.13
2023-04-29T20:07:11.038Z,32.67
2023-04-29T20:09:40.951Z,29.00
2023-04-29T20:12:09.433Z,33.17
2023-04-29T20:14:39.873Z,30.38
2023-04-29T20:17:10.957Z,30.83
2023-04-29T20:19:40.750Z,27.83
2023-04-29T20:22:09.394Z,30.65
2023-04-29T20:24:41.409Z,30.48
2023-04-29T20:27:10.403Z,32.10
2023-04-29T20:29:41.925Z,30.40
2023-04-29T20:32:24.447Z,35.55
2023-04-29T20:34:54.786Z,34.92
2023-04-29T20:37:28.694Z,35.05
2023-04-29T20:39:58.774Z,30.73
2023-04-29T20:42:27.748Z,35.47
2023-04-29T20:44:56.986Z,33.72
2023-04-29T20:47:29.026Z,30.90
2023-04-29T20:49:58.496Z,31.38
2023-04-29T20:52:31.181Z,35.17
2023-04-29T20:55:05.202Z,34.63
2023-04-29T20:57:36.244Z,27.85
2023-04-29T21:00:06.200Z,31.27
2023-04-29T21:02:37.343Z,30.60
2023-04-29T21:05:15.558Z,33.60
2023-04-29T21:07:48.701Z,26.98
2023-04-29T21:10:24.992Z,28.65
2023-04-29T21:12:53.596Z,26.35
2023-04-29T21:15:24.607Z,23.88
2023-04-29T21:17:53.110Z,24.15
2023-04-29T21:20:26.065Z,20.58
2023-04-29T21:25:25.645Z,22.02
2023-04-29T21:27:54.284Z,21.00
2023-04-29T21:30:30.373Z,18.95
2023-04-29T21:32:59.273Z,18.92
2023-04-29T21:35:28.779Z,22.02
2023-04-29T21:37:57.741Z,19.88
2023-04-29T21:40:30.311Z,17.58
2023-04-29T21:43:00.694Z,18.95
2023-04-29T21:45:29.827Z,24.70
2023-04-29T21:48:24.025Z,20.63
2023-04-29T21:50:57.358Z,21.70
2023-04-29T21:53:25.865Z,26.45
2023-04-29T21:55:54.884Z,20.10
2023-04-29T21:58:24.062Z,21.63
2023-04-29T22:01:01.570Z,21.23
2023-04-29T22:03:30.773Z,22.83
2023-04-29T22:05:59.787Z,19.15
2023-04-29T22:08:28.426Z,19.45
2023-04-29T22:10:57.848Z,19.70
2023-04-29T22:13:26.235Z,17.23
2023-04-29T22:15:55.106Z,17.80
2023-04-29T22:18:23.814Z,17.35
2023-04-29T22:20:54.082Z,15.27
2023-04-29T22:23:23.023Z,18.15
2023-04-29T22:25:52.575Z,15.02
2023-04-29T22:28:22.019Z,18.60
2023-04-29T22:30:50.909Z,19.13
2023-04-29T22:33:20.540Z,16.70
2023-04-29T22:35:51.281Z,18.08
2023-04-29T22:38:20.914Z,19.05
2023-04-29T22:40:53.502Z,18.08
2023-04-29T22:43:23.037Z,17.55
2023-04-29T22:45:56.026Z,17.30
2023-04-29T22:48:27.653Z,21.38
2023-04-29T22:51:04.012Z,20.38
2023-04-29T22:53:32.428Z,17.40
2023-04-29T22:56:02.253Z,16.00
2023-04-29T22:58:31.079Z,16.52
2023-04-29T23:01:00.779Z,18.55
2023-04-29T23:03:31.043Z,14.52
2023-04-29T23:06:01.268Z,17.25
2023-04-29T23:08:31.619Z,17.83
2023-04-29T23:11:00.289Z,17.13
2023-04-29T23:13:28.697Z,19.98
2023-04-29T23:15:57.984Z,22.75
2023-04-29T23:18:26.510Z,18.75
2023-04-29T23:20:57.029Z,25.42
2023-04-29T23:23:25.634Z,18.95
2023-04-29T23:25:54.622Z,16.38
2023-04-29T23:28:27.612Z,19.95
2023-04-29T23:30:56.423Z,19.00
2023-04-29T23:33:24.753Z,16.50
2023-04-29T23:35:54.246Z,16.63
2023-04-29T23:38:22.623Z,17.67
2023-04-29T23:40:51.807Z,18.67
2023-04-29T23:43:21.730Z,16.13
2023-04-29T23:45:50.521Z,18.35
2023-04-29T23:48:18.821Z,19.10
2023-04-29T23:50:48.143Z,19.80
2023-04-29T23:53:17.492Z,18.83
2023-04-29T23:55:46.286Z,18.60
2023-04-29T23:58:14.571Z,20.48
